createdAt,value
2023-12-11T05:26:02.869Z,22.05
2023-12-11T05:30:07.733Z,19.50
2023-12-11T05:34:10.543Z,28.15
2023-12-11T05:38:13.743Z,43.83
2023-12-11T05:42:16.556Z,40.90
2023-12-11T05:46:20.144Z,29.35
2023-12-11T05:50:22.882Z,39.25
2023-12-11T05:54:26.386Z,30.83
2023-12-11T05:58:29.221Z,33.20
2023-12-11T06:02:32.478Z,22.13
2023-12-11T06:06:35.641Z,24.33
2023-12-11T06:10:38.506Z,13.30
2023-12-11T06:14:44.532Z,22.60
2023-12-11T06:18:49.260Z,20.62
2023-12-11T06:22:52.563Z,21.70
2023-12-11T06:26:55.382Z,28.55
2023-12-11T06:30:58.539Z,24.12
2023-12-11T06:35:01.498Z,20.93
2023-12-11T06:39:05.019Z,17.12
2023-12-11T06:43:07.882Z,20.20
2023-12-11T06:47:11.136Z,20.93
2023-12-11T06:51:17.195Z,20.10
2023-12-11T06:55:20.445Z,29.27
2023-12-11T06:59:23.872Z,27.33
2023-12-11T07:03:27.390Z,24.15
2023-12-11T07:07:30.323Z,23.05
2023-12-11T07:11:33.608Z,21.27
2023-12-11T07:15:36.513Z,18.57
2023-12-11T07:19:39.804Z,28.05
2023-12-11T07:23:42.990Z,40.38
2023-12-11T07:27:46.816Z,26.53
2023-12-11T07:31:49.694Z,23.42
2023-12-11T07:35:53.518Z,20.83
2023-12-11T07:39:58.191Z,21.30
2023-12-11T07:44:03.303Z,27.02
2023-12-11T07:48:07.551Z,28.73
2023-12-11T07:52:11.555Z,26.75
2023-12-11T07:56:24.733Z,23.87
2023-12-11T08:00:27.860Z,24.23
2023-12-11T08:04:31.096Z,25.25
2023-12-11T08:08:33.883Z,25.70
2023-12-11T08:12:37.199Z,27.65
2023-12-11T08:16:40.111Z,27.00
2023-12-11T08:20:45.154Z,31.40
2023-12-11T08:24:48.980Z,26.02
2023-12-11T08:28:52.209Z,23.55
2023-12-11T08:32:55.063Z,25.30
2023-12-11T08:36:58.454Z,24.37
2023-12-11T08:41:01.360Z,25.77
2023-12-11T08:45:05.840Z,35.28
2023-12-11T08:49:08.962Z,28.53
2023-12-11T08:53:12.228Z,26.60
2023-12-11T08:57:14.957Z,27.52
2023-12-11T09:01:19.111Z,30.03
2023-12-11T09:05:22.035Z,26.25
2023-12-11T09:09:25.228Z,24.63
2023-12-11T09:13:29.645Z,29.05
2023-12-11T09:17:33.732Z,31.20
2023-12-11T09:21:37.545Z,31.15
2023-12-11T09:25:40.664Z,30.08
2023-12-11T09:29:43.730Z,24.70
2023-12-11T09:33:47.429Z,28.92
2023-12-11T09:37:53.159Z,26.12
2023-12-11T09:42:01.224Z,25.07
2023-12-11T09:46:09.032Z,29.60
2023-12-11T09:50:21.701Z,39.75
2023-12-11T09:54:28.137Z,26.35
2023-12-11T09:58:33.729Z,26.67
2023-12-11T10:02:42.601Z,29.90
2023-12-11T10:06:56.020Z,32.35
2023-12-11T10:11:19.236Z,35.47
2023-12-11T10:15:26.852Z,30.75
2023-12-11T10:19:34.549Z,35.75
2023-12-11T10:23:37.880Z,35.33
2023-12-11T10:27:47.193Z,28.95
2023-12-11T10:31:52.309Z,31.55
2023-12-11T10:36:14.352Z,29.17
2023-12-11T10:40:18.166Z,38.93
2023-12-11T10:44:40.271Z,31.90
2023-12-11T10:49:27.280Z,35.75
2023-12-11T10:53:33.326Z,35.90
2023-12-11T10:57:44.639Z,30.55
2023-12-11T11:01:52.900Z,29.35
2023-12-11T11:05:57.007Z,26.20
2023-12-11T11:10:18.798Z,24.73
2023-12-11T11:14:52.429Z,23.90
2023-12-11T11:19:10.315Z,25.27
2023-12-11T11:23:20.146Z,20.20
2023-12-11T11:27:43.854Z,22.60
2023-12-11T11:36:23.205Z,23.93
2023-12-11T11:40:48.651Z,24.30
2023-12-11T11:44:58.974Z,19.92
2023-12-11T11:49:02.528Z,20.90
2023-12-11T11:53:12.764Z,21.23
2023-12-11T11:57:16.805Z,24.35
2023-12-11T12:01:21.118Z,23.23
2023-12-11T12:05:35.678Z,22.83
2023-12-11T12:09:51.394Z,23.60
2023-12-11T12:14:00.708Z,25.83
2023-12-11T12:18:10.831Z,33.17
2023-12-11T12:22:15.812Z,26.48
2023-12-11T12:26:18.838Z,27.17
2023-12-11T12:30:23.574Z,29.07
2023-12-11T12:34:28.329Z,27.73
2023-12-11T12:38:32.481Z,29.08
2023-12-11T12:42:35.405Z,27.87
2023-12-11T12:46:44.085Z,28.37
2023-12-11T12:50:47.461Z,29.85
2023-12-11T12:54:51.626Z,29.52
2023-12-11T12:58:57.382Z,27.77
2023-12-11T13:03:01.024Z,27.58
2023-12-11T13:07:13.381Z,25.52
2023-12-11T13:11:16.753Z,31.43
2023-12-11T13:15:19.519Z,29.40
2023-12-11T13:19:26.316Z,30.15
2023-12-11T13:23:29.215Z,28.35
2023-12-11T13:27:32.622Z,27.33
2023-12-11T13:31:35.618Z,29.17
2023-12-11T13:35:38.586Z,32.10
2023-12-11T13:39:41.379Z,33.80
2023-12-11T13:43:44.558Z,28.77
2023-12-11T13:47:47.320Z,36.83
2023-12-11T13:51:50.413Z,39.17
2023-12-11T13:55:53.227Z,41.63
2023-12-11T13:59:56.233Z,44.42
2023-12-11T14:03:59.075Z,47.42
2023-12-11T14:08:05.536Z,43.50
2023-12-11T14:12:08.810Z,35.50
2023-12-11T14:16:12.452Z,33.00
2023-12-11T14:20:15.309Z,40.67
2023-12-11T14:24:18.985Z,41.13
2023-12-11T14:28:21.691Z,48.00
2023-12-11T14:32:24.906Z,39.40
2023-12-11T14:36:27.993Z,42.28
2023-12-11T14:40:31.569Z,56.13
2023-12-11T14:44:35.722Z,55.80
2023-12-11T14:48:40.068Z,60.70
2023-12-11T14:52:43.493Z,66.47
2023-12-11T14:56:47.009Z,53.20
2023-12-11T15:00:49.862Z,55.03
2023-12-11T15:04:53.119Z,51.45
2023-12-11T15:08:55.878Z,54.92
2023-12-11T15:12:59.410Z,59.67
2023-12-11T15:17:02.481Z,33.47
2023-12-11T15:21:05.708Z,33.22
2023-12-11T15:25:12.337Z,33.17
2023-12-11T15:29:15.465Z,26.13
2023-12-11T15:33:18.302Z,30.48
2023-12-11T15:37:21.458Z,27.25
2023-12-11T15:41:24.174Z,38.33
2023-12-11T15:45:27.229Z,29.37
2023-12-11T15:49:30.115Z,26.00
2023-12-11T15:53:34.436Z,27.23
2023-12-11T15:57:37.138Z,28.10
2023-12-11T16:01:40.303Z,30.80
2023-12-11T16:05:43.429Z,50.72
